sensor_id;sensor_type;location;lat;lon;timestamp;pressure;altitude;pressure_sealevel;temperature;humidity
66385;BME280;53426;55.872;37.462;2023-10-31T00:01:15;98477.38;;;8.62;91.49
66385;BME280;53426;55.872;37.462;2023-10-31T00:03:40;98453.56;;;8.45;91.26
66385;BME280;53426;55.872;37.462;2023-10-31T00:06:08;98489.91;;;8.60;91.26
66385;BME280;53426;55.872;37.462;2023-10-31T00:09:33;98498.38;;;8.64;90.98
66385;BME280;53426;55.872;37.462;2023-10-31T00:12:00;98475.50;;;8.45;91.01
66385;BME280;53426;55.872;37.462;2023-10-31T00:14:26;98494.88;;;8.63;90.59
66385;BME280;53426;55.872;37.462;2023-10-31T00:16:52;98492.94;;;8.65;90.93
66385;BME280;53426;55.872;37.462;2023-10-31T00:19:18;98487.94;;;8.62;90.93
66385;BME280;53426;55.872;37.462;2023-10-31T00:21:51;98480.19;;;8.51;90.56
66385;BME280;53426;55.872;37.462;2023-10-31T00:24:17;98501.69;;;8.66;90.45
66385;BME280;53426;55.872;37.462;2023-10-31T00:26:49;98506.56;;;8.61;90.17
66385;BME280;53426;55.872;37.462;2023-10-31T00:29:45;98516.28;;;8.60;90.83
66385;BME280;53426;55.872;37.462;2023-10-31T00:32:14;98501.72;;;8.56;90.86
66385;BME280;53426;55.872;37.462;2023-10-31T00:34:43;98517.81;;;8.63;90.48
66385;BME280;53426;55.872;37.462;2023-10-31T00:37:09;98516.28;;;8.60;90.69
66385;BME280;53426;55.872;37.462;2023-10-31T00:39:36;98498.25;;;8.46;90.58
66385;BME280;53426;55.872;37.462;2023-10-31T00:42:02;98525.59;;;8.64;90.24
66385;BME280;53426;55.872;37.462;2023-10-31T00:44:29;98535.16;;;8.65;90.01
66385;BME280;53426;55.872;37.462;2023-10-31T00:46:55;98537.25;;;8.71;90.70
66385;BME280;53426;55.872;37.462;2023-10-31T00:49:31;98537.91;;;8.73;90.14
66385;BME280;53426;55.872;37.462;2023-10-31T00:51:59;98534.34;;;8.65;89.80
66385;BME280;53426;55.872;37.462;2023-10-31T00:54:26;98512.84;;;8.50;90.25
66385;BME280;53426;55.872;37.462;2023-10-31T00:56:55;98539.47;;;8.66;90.37
66385;BME280;53426;55.872;37.462;2023-10-31T00:59:21;98551.84;;;8.66;90.01
66385;BME280;53426;55.872;37.462;2023-10-31T01:01:49;98549.75;;;8.69;89.70
66385;BME280;53426;55.872;37.462;2023-10-31T01:04:16;98546.69;;;8.64;89.94
66385;BME280;53426;55.872;37.462;2023-10-31T01:06:43;98548.91;;;8.69;90.12
66385;BME280;53426;55.872;37.462;2023-10-31T01:09:11;98553.91;;;8.72;89.73
66385;BME280;53426;55.872;37.462;2023-10-31T01:11:47;98544.47;;;8.69;89.66
66385;BME280;53426;55.872;37.462;2023-10-31T01:14:20;98525.88;;;8.52;89.50
66385;BME280;53426;55.872;37.462;2023-10-31T01:17:30;98569.59;;;8.73;89.62
66385;BME280;53426;55.872;37.462;2023-10-31T01:19:58;98570.00;;;8.69;89.49
66385;BME280;53426;55.872;37.462;2023-10-31T01:28:25;98549.91;;;8.39;89.88
66385;BME280;53426;55.872;37.462;2023-10-31T01:30:54;98562.97;;;8.50;89.84
66385;BME280;53426;55.872;37.462;2023-10-31T01:33:20;98590.44;;;8.57;89.88
66385;BME280;53426;55.872;37.462;2023-10-31T01:35:49;98599.06;;;8.59;89.77
66385;BME280;53426;55.872;37.462;2023-10-31T01:38:15;98592.09;;;8.58;89.86
66385;BME280;53426;55.872;37.462;2023-10-31T01:40:50;98596.41;;;8.59;90.15
66385;BME280;53426;55.872;37.462;2023-10-31T01:43:41;98608.34;;;8.73;89.75
66385;BME280;53426;55.872;37.462;2023-10-31T01:46:09;98589.06;;;8.53;89.77
66385;BME280;53426;55.872;37.462;2023-10-31T01:48:35;98615.00;;;8.67;89.58
66385;BME280;53426;55.872;37.462;2023-10-31T01:51:03;98615.44;;;8.63;89.73
66385;BME280;53426;55.872;37.462;2023-10-31T01:53:34;98630.59;;;8.70;89.49
66385;BME280;53426;55.872;37.462;2023-10-31T01:56:00;98632.09;;;8.73;89.45
66385;BME280;53426;55.872;37.462;2023-10-31T01:58:33;98606.81;;;8.51;89.46
66385;BME280;53426;55.872;37.462;2023-10-31T02:01:00;98589.19;;;8.42;89.34
66385;BME280;53426;55.872;37.462;2023-10-31T02:03:30;98632.09;;;8.63;89.61
66385;BME280;53426;55.872;37.462;2023-10-31T02:05:57;98635.44;;;8.65;89.24
66385;BME280;53426;55.872;37.462;2023-10-31T02:08:24;98626.56;;;8.66;89.01
66385;BME280;53426;55.872;37.462;2023-10-31T02:10:51;98627.78;;;8.62;89.15
66385;BME280;53426;55.872;37.462;2023-10-31T02:13:19;98646.53;;;8.69;88.72
66385;BME280;53426;55.872;37.462;2023-10-31T02:15:49;98655.44;;;8.68;88.84
66385;BME280;53426;55.872;37.462;2023-10-31T02:18:18;98646.97;;;8.64;88.52
66385;BME280;53426;55.872;37.462;2023-10-31T02:21:05;98613.22;;;8.49;88.26
66385;BME280;53426;55.872;37.462;2023-10-31T02:23:31;98608.78;;;8.39;87.77
66385;BME280;53426;55.872;37.462;2023-10-31T02:26:00;98674.91;;;8.76;87.84
66385;BME280;53426;55.872;37.462;2023-10-31T02:28:33;98669.34;;;8.70;87.81
66385;BME280;53426;55.872;37.462;2023-10-31T02:31:02;98641.69;;;8.55;88.04
66385;BME280;53426;55.872;37.462;2023-10-31T02:33:28;98666.56;;;8.62;87.71
66385;BME280;53426;55.872;37.462;2023-10-31T02:35:57;98670.16;;;8.70;87.58
66385;BME280;53426;55.872;37.462;2023-10-31T02:38:23;98664.06;;;8.70;87.54
66385;BME280;53426;55.872;37.462;2023-10-31T02:40:50;98671.13;;;8.69;87.31
66385;BME280;53426;55.872;37.462;2023-10-31T02:43:19;98664.06;;;8.60;87.23
66385;BME280;53426;55.872;37.462;2023-10-31T02:45:45;98675.28;;;8.62;87.06
66385;BME280;53426;55.872;37.462;2023-10-31T02:48:16;98671.97;;;8.60;87.48
66385;BME280;53426;55.872;37.462;2023-10-31T02:50:45;98676.28;;;8.61;87.59
66385;BME280;53426;55.872;37.462;2023-10-31T02:53:11;98672.66;;;8.53;87.72
66385;BME280;53426;55.872;37.462;2023-10-31T02:55:42;98684.03;;;8.53;87.64
66385;BME280;53426;55.872;37.462;2023-10-31T02:58:08;98675.69;;;8.38;87.61
66385;BME280;53426;55.872;37.462;2023-10-31T03:00:35;98685.28;;;8.39;87.41
66385;BME280;53426;55.872;37.462;2023-10-31T03:03:01;98690.25;;;8.33;87.78
66385;BME280;53426;55.872;37.462;2023-10-31T03:05:27;98672.69;;;8.13;88.06
66385;BME280;53426;55.872;37.462;2023-10-31T03:07:56;98681.03;;;8.18;88.11
66385;BME280;53426;55.872;37.462;2023-10-31T03:10:26;98689.19;;;8.15;88.22
66385;BME280;53426;55.872;37.462;2023-10-31T03:18:30;98681.38;;;8.04;88.86
66385;BME280;53426;55.872;37.462;2023-10-31T03:20:56;98707.81;;;8.23;89.07
66385;BME280;53426;55.872;37.462;2023-10-31T03:23:22;98706.84;;;8.24;89.21
66385;BME280;53426;55.872;37.462;2023-10-31T03:25:48;98712.69;;;8.27;89.02
66385;BME280;53426;55.872;37.462;2023-10-31T03:28:19;98708.50;;;8.25;88.75
66385;BME280;53426;55.872;37.462;2023-10-31T03:30:46;98711.72;;;8.28;88.61
66385;BME280;53426;55.872;37.462;2023-10-31T03:33:15;98723.81;;;8.31;89.15
66385;BME280;53426;55.872;37.462;2023-10-31T03:35:44;98715.47;;;8.26;89.44
66385;BME280;53426;55.872;37.462;2023-10-31T03:38:13;98720.94;;;8.34;89.20
66385;BME280;53426;55.872;37.462;2023-10-31T03:40:39;98724.56;;;8.43;89.04
66385;BME280;53426;55.872;37.462;2023-10-31T03:43:05;98733.75;;;8.48;89.05
66385;BME280;53426;55.872;37.462;2023-10-31T03:45:31;98721.78;;;8.44;89.10
66385;BME280;53426;55.872;37.462;2023-10-31T03:47:59;98730.13;;;8.49;88.33
66385;BME280;53426;55.872;37.462;2023-10-31T03:50:25;98722.09;;;8.51;88.71
66385;BME280;53426;55.872;37.462;2023-10-31T03:52:55;98701.22;;;8.38;88.67
66385;BME280;53426;55.872;37.462;2023-10-31T03:55:21;98749.16;;;8.62;88.29
66385;BME280;53426;55.872;37.462;2023-10-31T03:57:47;98740.44;;;8.62;88.05
66385;BME280;53426;55.872;37.462;2023-10-31T04:00:13;98739.88;;;8.68;88.38
66385;BME280;53426;55.872;37.462;2023-10-31T04:02:40;98749.47;;;8.69;88.04
66385;BME280;53426;55.872;37.462;2023-10-31T04:05:09;98752.81;;;8.71;88.12
66385;BME280;53426;55.872;37.462;2023-10-31T04:07:36;98750.84;;;8.63;87.82
66385;BME280;53426;55.872;37.462;2023-10-31T04:10:02;98745.88;;;8.70;87.90
66385;BME280;53426;55.872;37.462;2023-10-31T04:12:31;98734.47;;;8.60;87.84
66385;BME280;53426;55.872;37.462;2023-10-31T04:18:14;98734.75;;;8.66;87.64
66385;BME280;53426;55.872;37.462;2023-10-31T04:20:42;98752.81;;;8.80;87.41
66385;BME280;53426;55.872;37.462;2023-10-31T04:23:09;98767.16;;;8.88;87.30
66385;BME280;53426;55.872;37.462;2023-10-31T04:25:44;98771.31;;;8.90;87.07
66385;BME280;53426;55.872;37.462;2023-10-31T04:28:13;98773.13;;;8.90;86.60
66385;BME280;53426;55.872;37.462;2023-10-31T04:30:40;98774.66;;;8.92;86.75
66385;BME280;53426;55.872;37.462;2023-10-31T04:33:06;98748.09;;;8.74;86.23
66385;BME280;53426;55.872;37.462;2023-10-31T04:35:38;98778.28;;;9.01;86.04
66385;BME280;53426;55.872;37.462;2023-10-31T04:38:03;98763.25;;;8.92;85.87
66385;BME280;53426;55.872;37.462;2023-10-31T04:40:35;98776.75;;;8.98;85.82
66385;BME280;53426;55.872;37.462;2023-10-31T04:43:01;98784.38;;;9.01;85.99
66385;BME280;53426;55.872;37.462;2023-10-31T04:45:27;98755.47;;;8.90;85.54
66385;BME280;53426;55.872;37.462;2023-10-31T04:47:55;98742.69;;;8.86;85.96
66385;BME280;53426;55.872;37.462;2023-10-31T04:50:22;98762.44;;;9.01;85.60
66385;BME280;53426;55.872;37.462;2023-10-31T04:52:47;98772.19;;;9.10;85.13
66385;BME280;53426;55.872;37.462;2023-10-31T04:55:14;98780.78;;;9.12;85.03
66385;BME280;53426;55.872;37.462;2023-10-31T04:57:39;98768.84;;;9.08;85.37
66385;BME280;53426;55.872;37.462;2023-10-31T05:00:06;98790.38;;;9.22;85.09
66385;BME280;53426;55.872;37.462;2023-10-31T05:02:38;98794.41;;;9.17;83.79
66385;BME280;53426;55.872;37.462;2023-10-31T05:05:05;98785.66;;;9.07;84.18
66385;BME280;53426;55.872;37.462;2023-10-31T05:07:31;98785.81;;;9.15;84.40
66385;BME280;53426;55.872;37.462;2023-10-31T05:09:58;98801.22;;;9.29;84.34
66385;BME280;53426;55.872;37.462;2023-10-31T05:12:25;98791.63;;;9.18;84.33
66385;BME280;53426;55.872;37.462;2023-10-31T05:14:51;98808.31;;;9.38;84.36
66385;BME280;53426;55.872;37.462;2023-10-31T05:17:17;98798.44;;;9.40;83.93
66385;BME280;53426;55.872;37.462;2023-10-31T05:19:48;98814.16;;;9.51;83.36
66385;BME280;53426;55.872;37.462;2023-10-31T05:22:17;98820.56;;;9.58;82.63
66385;BME280;53426;55.872;37.462;2023-10-31T05:24:42;98799.13;;;9.61;82.62
66385;BME280;53426;55.872;37.462;2023-10-31T05:27:09;98789.25;;;9.63;82.32
66385;BME280;53426;55.872;37.462;2023-10-31T05:29:38;98807.06;;;9.81;81.91
66385;BME280;53426;55.872;37.462;2023-10-31T05:32:07;98806.88;;;9.82;81.79
66385;BME280;53426;55.872;37.462;2023-10-31T05:34:33;98772.28;;;9.66;81.46
66385;BME280;53426;55.872;37.462;2023-10-31T05:36:59;98823.97;;;10.07;81.74
66385;BME280;53426;55.872;37.462;2023-10-31T05:39:25;98790.72;;;9.95;80.95
66385;BME280;53426;55.872;37.462;2023-10-31T05:41:52;98835.09;;;10.20;80.40
66385;BME280;53426;55.872;37.462;2023-10-31T05:44:23;98829.97;;;10.09;79.62
66385;BME280;53426;55.872;37.462;2023-10-31T05:46:55;98857.38;;;9.98;79.91
66385;BME280;53426;55.872;37.462;2023-10-31T05:49:21;98854.75;;;9.89;80.45
66385;BME280;53426;55.872;37.462;2023-10-31T05:51:51;98849.34;;;9.81;81.04
66385;BME280;53426;55.872;37.462;2023-10-31T05:54:20;98848.94;;;9.76;80.88
66385;BME280;53426;55.872;37.462;2023-10-31T05:56:46;98868.41;;;9.75;80.70
66385;BME280;53426;55.872;37.462;2023-10-31T05:59:12;98860.22;;;9.68;81.42
66385;BME280;53426;55.872;37.462;2023-10-31T06:01:38;98855.91;;;9.48;82.43
66385;BME280;53426;55.872;37.462;2023-10-31T06:04:05;98866.19;;;9.51;82.48
66385;BME280;53426;55.872;37.462;2023-10-31T06:06:37;98806.09;;;9.05;82.55
66385;BME280;53426;55.872;37.462;2023-10-31T06:09:24;98885.94;;;9.56;82.88
66385;BME280;53426;55.872;37.462;2023-10-31T06:11:50;98859.22;;;9.40;82.97
66385;BME280;53426;55.872;37.462;2023-10-31T06:14:16;98858.66;;;9.37;83.21
66385;BME280;53426;55.872;37.462;2023-10-31T06:16:42;98883.72;;;9.52;83.20
66385;BME280;53426;55.872;37.462;2023-10-31T06:19:09;98882.63;;;9.54;82.93
66385;BME280;53426;55.872;37.462;2023-10-31T06:22:00;98904.03;;;9.71;83.50
66385;BME280;53426;55.872;37.462;2023-10-31T06:24:26;98892.22;;;9.65;83.03
66385;BME280;53426;55.872;37.462;2023-10-31T06:26:52;98878.72;;;9.58;83.58
66385;BME280;53426;55.872;37.462;2023-10-31T06:29:18;98887.47;;;9.69;83.82
66385;BME280;53426;55.872;37.462;2023-10-31T06:31:50;98904.88;;;9.81;84.15
66385;BME280;53426;55.872;37.462;2023-10-31T06:43:24;98873.16;;;9.81;84.07
66385;BME280;53426;55.872;37.462;2023-10-31T06:45:52;98881.47;;;9.95;83.56
66385;BME280;53426;55.872;37.462;2023-10-31T06:48:18;98912.81;;;10.19;83.29
66385;BME280;53426;55.872;37.462;2023-10-31T06:50:46;98905.97;;;10.26;83.37
66385;BME280;53426;55.872;37.462;2023-10-31T06:53:17;98903.72;;;10.31;83.05
66385;BME280;53426;55.872;37.462;2023-10-31T06:55:43;98896.91;;;10.29;82.58
66385;BME280;53426;55.872;37.462;2023-10-31T06:58:09;98919.44;;;10.42;82.70
66385;BME280;53426;55.872;37.462;2023-10-31T07:00:35;98917.06;;;10.49;82.03
66385;BME280;53426;55.872;37.462;2023-10-31T07:03:01;98908.16;;;10.50;81.60
66385;BME280;53426;55.872;37.462;2023-10-31T07:05:44;98945.41;;;10.76;82.15
66385;BME280;53426;55.872;37.462;2023-10-31T07:08:10;98915.34;;;10.67;81.55
66385;BME280;53426;55.872;37.462;2023-10-31T07:10:36;98944.16;;;10.80;81.23
66385;BME280;53426;55.872;37.462;2023-10-31T07:13:02;98943.72;;;10.75;81.33
66385;BME280;53426;55.872;37.462;2023-10-31T07:15:28;98960.31;;;10.77;81.26
66385;BME280;53426;55.872;37.462;2023-10-31T07:17:54;98927.34;;;10.62;80.91
66385;BME280;53426;55.872;37.462;2023-10-31T07:20:20;98939.44;;;10.64;80.93
66385;BME280;53426;55.872;37.462;2023-10-31T07:22:46;98914.13;;;10.52;80.94
66385;BME280;53426;55.872;37.462;2023-10-31T07:25:15;98974.94;;;10.81;81.07
66385;BME280;53426;55.872;37.462;2023-10-31T07:27:44;98961.28;;;10.76;80.72
66385;BME280;53426;55.872;37.462;2023-10-31T07:30:14;98970.34;;;10.83;80.83
66385;BME280;53426;55.872;37.462;2023-10-31T07:32:40;98965.34;;;10.80;80.94
66385;BME280;53426;55.872;37.462;2023-10-31T07:35:06;98940.28;;;10.74;80.65
66385;BME280;53426;55.872;37.462;2023-10-31T07:37:32;98949.03;;;10.75;80.52
66385;BME280;53426;55.872;37.462;2023-10-31T07:40:02;98992.44;;;11.01;80.69
66385;BME280;53426;55.872;37.462;2023-10-31T07:42:30;98983.53;;;10.93;80.46
66385;BME280;53426;55.872;37.462;2023-10-31T07:44:59;98951.84;;;10.64;79.76
66385;BME280;53426;55.872;37.462;2023-10-31T07:51:43;98981.47;;;10.96;80.38
66385;BME280;53426;55.872;37.462;2023-10-31T07:54:10;98998.19;;;10.87;80.43
66385;BME280;53426;55.872;37.462;2023-10-31T07:56:36;99011.69;;;10.94;80.39
66385;BME280;53426;55.872;37.462;2023-10-31T07:59:02;99013.66;;;11.01;80.42
66385;BME280;53426;55.872;37.462;2023-10-31T08:04:18;99010.59;;;10.86;80.14
66385;BME280;53426;55.872;37.462;2023-10-31T08:12:31;99025.22;;;11.00;79.58
66385;BME280;53426;55.872;37.462;2023-10-31T08:14:56;99025.06;;;11.02;79.59
66385;BME280;53426;55.872;37.462;2023-10-31T08:17:27;99028.66;;;11.10;79.64
66385;BME280;53426;55.872;37.462;2023-10-31T08:19:54;99015.25;;;11.21;79.41
66385;BME280;53426;55.872;37.462;2023-10-31T08:22:20;99010.69;;;11.41;78.16
66385;BME280;53426;55.872;37.462;2023-10-31T08:24:49;99012.28;;;11.52;77.32
66385;BME280;53426;55.872;37.462;2023-10-31T08:27:41;99013.88;;;11.72;77.69
66385;BME280;53426;55.872;37.462;2023-10-31T08:30:07;99015.66;;;11.81;77.30
66385;BME280;53426;55.872;37.462;2023-10-31T08:32:33;98977.16;;;11.67;76.48
66385;BME280;53426;55.872;37.462;2023-10-31T08:34:59;99013.09;;;12.07;76.48
66385;BME280;53426;55.872;37.462;2023-10-31T08:37:26;98994.53;;;12.07;75.32
66385;BME280;53426;55.872;37.462;2023-10-31T08:49:21;99011.56;;;11.87;74.97
66385;BME280;53426;55.872;37.462;2023-10-31T08:51:47;99031.38;;;11.92;74.52
66385;BME280;53426;55.872;37.462;2023-10-31T08:54:13;99028.00;;;11.90;74.68
66385;BME280;53426;55.872;37.462;2023-10-31T08:56:42;99025.28;;;11.82;74.62
66385;BME280;53426;55.872;37.462;2023-10-31T08:59:08;99027.69;;;11.76;74.84
66385;BME280;53426;55.872;37.462;2023-10-31T09:01:33;99013.88;;;11.72;74.88
66385;BME280;53426;55.872;37.462;2023-10-31T09:03:59;99022.69;;;11.72;74.50
66385;BME280;53426;55.872;37.462;2023-10-31T09:06:27;99032.28;;;11.83;74.71
66385;BME280;53426;55.872;37.462;2023-10-31T09:08:53;99019.59;;;11.77;74.92
66385;BME280;53426;55.872;37.462;2023-10-31T09:11:22;99034.84;;;11.93;74.67
66385;BME280;53426;55.872;37.462;2023-10-31T09:13:50;99037.38;;;11.94;73.74
66385;BME280;53426;55.872;37.462;2023-10-31T09:16:16;99033.88;;;11.94;73.75
66385;BME280;53426;55.872;37.462;2023-10-31T09:40:01;99034.50;;;12.23;72.34
66385;BME280;53426;55.872;37.462;2023-10-31T09:42:30;99038.44;;;12.19;72.28
66385;BME280;53426;55.872;37.462;2023-10-31T09:44:59;99019.56;;;12.04;72.03
66385;BME280;53426;55.872;37.462;2023-10-31T09:47:25;99027.66;;;12.03;72.53
66385;BME280;53426;55.872;37.462;2023-10-31T09:49:52;99028.97;;;11.99;72.71
66385;BME280;53426;55.872;37.462;2023-10-31T09:52:19;99026.66;;;11.86;72.57
66385;BME280;53426;55.872;37.462;2023-10-31T09:54:49;99027.97;;;11.72;72.30
66385;BME280;53426;55.872;37.462;2023-10-31T09:57:16;99024.25;;;11.65;72.85
66385;BME280;53426;55.872;37.462;2023-10-31T09:59:46;99025.47;;;11.71;73.47
66385;BME280;53426;55.872;37.462;2023-10-31T10:02:12;99015.59;;;11.63;74.25
66385;BME280;53426;55.872;37.462;2023-10-31T10:04:41;99024.50;;;11.72;74.12
66385;BME280;53426;55.872;37.462;2023-10-31T10:07:08;99023.47;;;12.00;73.91
66385;BME280;53426;55.872;37.462;2023-10-31T10:09:47;99026.84;;;12.20;73.14
66385;BME280;53426;55.872;37.462;2023-10-31T10:12:21;99025.78;;;12.31;71.63
66385;BME280;53426;55.872;37.462;2023-10-31T10:14:47;99035.47;;;12.57;72.08
66385;BME280;53426;55.872;37.462;2023-10-31T10:17:23;99026.69;;;12.83;70.71
66385;BME280;53426;55.872;37.462;2023-10-31T10:20:09;99023.75;;;13.12;69.51
66385;BME280;53426;55.872;37.462;2023-10-31T10:22:40;99025.47;;;13.21;68.86
66385;BME280;53426;55.872;37.462;2023-10-31T10:25:31;99016.13;;;13.17;68.01
66385;BME280;53426;55.872;37.462;2023-10-31T10:30:59;99007.41;;;13.07;67.84
66385;BME280;53426;55.872;37.462;2023-10-31T10:33:25;98997.19;;;12.94;68.37
66385;BME280;53426;55.872;37.462;2023-10-31T10:35:50;99020.00;;;13.05;68.59
66385;BME280;53426;55.872;37.462;2023-10-31T10:38:23;99017.72;;;13.10;68.50
66385;BME280;53426;55.872;37.462;2023-10-31T10:40:55;99023.81;;;13.20;68.36
66385;BME280;53426;55.872;37.462;2023-10-31T10:43:24;99014.41;;;13.33;67.60
66385;BME280;53426;55.872;37.462;2023-10-31T10:45:55;99011.78;;;13.42;67.32
66385;BME280;53426;55.872;37.462;2023-10-31T10:48:22;98994.38;;;13.55;67.34
66385;BME280;53426;55.872;37.462;2023-10-31T10:50:57;98993.78;;;13.77;66.31
66385;BME280;53426;55.872;37.462;2023-10-31T10:53:35;98995.75;;;13.75;65.41
66385;BME280;53426;55.872;37.462;2023-10-31T10:56:15;98966.31;;;13.61;65.98
66385;BME280;53426;55.872;37.462;2023-10-31T10:58:55;98996.06;;;13.64;65.91
66385;BME280;53426;55.872;37.462;2023-10-31T11:01:24;99007.97;;;13.44;65.67
66385;BME280;53426;55.872;37.462;2023-10-31T11:03:52;98994.81;;;13.34;65.46
66385;BME280;53426;55.872;37.462;2023-10-31T11:06:23;98990.16;;;13.11;66.40
66385;BME280;53426;55.872;37.462;2023-10-31T11:08:52;99004.03;;;13.22;66.90
66385;BME280;53426;55.872;37.462;2023-10-31T11:11:24;98995.84;;;13.16;66.35
66385;BME280;53426;55.872;37.462;2023-10-31T11:14:09;99003.31;;;13.12;66.92
66385;BME280;53426;55.872;37.462;2023-10-31T11:16:44;98990.53;;;12.90;67.23
66385;BME280;53426;55.872;37.462;2023-10-31T11:19:14;98981.44;;;12.92;67.65
66385;BME280;53426;55.872;37.462;2023-10-31T11:22:00;98999.19;;;13.18;66.81
66385;BME280;53426;55.872;37.462;2023-10-31T11:24:33;99008.41;;;13.06;66.85
66385;BME280;53426;55.872;37.462;2023-10-31T11:27:05;98997.28;;;12.76;66.83
66385;BME280;53426;55.872;37.462;2023-10-31T11:29:35;99006.75;;;12.61;67.81
66385;BME280;53426;55.872;37.462;2023-10-31T11:32:11;98997.88;;;12.27;68.05
66385;BME280;53426;55.872;37.462;2023-10-31T11:34:41;99003.56;;;12.14;69.31
66385;BME280;53426;55.872;37.462;2023-10-31T11:37:23;98997.72;;;12.10;68.69
66385;BME280;53426;55.872;37.462;2023-10-31T11:40:19;99003.03;;;12.10;68.55
66385;BME280;53426;55.872;37.462;2023-10-31T11:42:57;98997.72;;;12.10;68.98
66385;BME280;53426;55.872;37.462;2023-10-31T11:47:56;99007.56;;;12.18;69.06
66385;BME280;53426;55.872;37.462;2023-10-31T11:50:23;99005.06;;;12.16;68.64
66385;BME280;53426;55.872;37.462;2023-10-31T11:55:35;99007.34;;;12.29;68.54
66385;BME280;53426;55.872;37.462;2023-10-31T11:58:14;99013.25;;;12.41;69.07
66385;BME280;53426;55.872;37.462;2023-10-31T12:00:41;99010.00;;;12.47;68.65
66385;BME280;53426;55.872;37.462;2023-10-31T12:03:07;98997.09;;;12.52;67.83
66385;BME280;53426;55.872;37.462;2023-10-31T12:11:32;99009.53;;;12.34;68.85
66385;BME280;53426;55.872;37.462;2023-10-31T12:14:02;99005.53;;;12.30;68.92
66385;BME280;53426;55.872;37.462;2023-10-31T12:16:34;98994.84;;;12.22;68.65
66385;BME280;53426;55.872;37.462;2023-10-31T12:19:04;98997.03;;;12.08;68.96
66385;BME280;53426;55.872;37.462;2023-10-31T12:21:48;98993.88;;;12.05;70.33
66385;BME280;53426;55.872;37.462;2023-10-31T12:24:18;98992.34;;;12.02;69.96
66385;BME280;53426;55.872;37.462;2023-10-31T12:26:45;98993.16;;;12.03;70.19
66385;BME280;53426;55.872;37.462;2023-10-31T12:29:13;98992.28;;;11.94;70.25
66385;BME280;53426;55.872;37.462;2023-10-31T12:31:53;98987.56;;;11.88;70.33
66385;BME280;53426;55.872;37.462;2023-10-31T12:37:30;98985.41;;;11.74;70.34
66385;BME280;53426;55.872;37.462;2023-10-31T12:39:58;98966.50;;;11.59;70.34
66385;BME280;53426;55.872;37.462;2023-10-31T12:42:28;98947.66;;;11.35;70.94
66385;BME280;53426;55.872;37.462;2023-10-31T12:44:59;98980.78;;;11.49;71.32
66385;BME280;53426;55.872;37.462;2023-10-31T12:47:25;98981.38;;;11.43;71.98
66385;BME280;53426;55.872;37.462;2023-10-31T12:50:12;98974.72;;;11.39;72.65
66385;BME280;53426;55.872;37.462;2023-10-31T12:52:46;98986.75;;;11.33;72.76
66385;BME280;53426;55.872;37.462;2023-10-31T12:55:14;98992.09;;;11.23;73.16
66385;BME280;53426;55.872;37.462;2023-10-31T12:57:39;98968.44;;;11.03;73.99
66385;BME280;53426;55.872;37.462;2023-10-31T13:00:06;98987.38;;;11.08;74.26
66385;BME280;53426;55.872;37.462;2023-10-31T13:02:36;98986.84;;;11.04;74.44
66385;BME280;53426;55.872;37.462;2023-10-31T13:05:17;98979.63;;;10.97;74.46
66385;BME280;53426;55.872;37.462;2023-10-31T13:07:50;99006.66;;;11.00;74.67
66385;BME280;53426;55.872;37.462;2023-10-31T13:10:20;98986.19;;;10.93;75.83
66385;BME280;53426;55.872;37.462;2023-10-31T13:12:46;98989.41;;;10.86;75.19
66385;BME280;53426;55.872;37.462;2023-10-31T13:15:17;98997.78;;;10.82;75.05
66385;BME280;53426;55.872;37.462;2023-10-31T13:17:44;98974.00;;;10.53;75.33
66385;BME280;53426;55.872;37.462;2023-10-31T13:20:11;99008.56;;;10.61;75.91
66385;BME280;53426;55.872;37.462;2023-10-31T13:22:39;99011.91;;;10.54;76.35
66385;BME280;53426;55.872;37.462;2023-10-31T13:25:08;99006.78;;;10.42;77.21
66385;BME280;53426;55.872;37.462;2023-10-31T13:27:37;98995.66;;;10.29;77.47
66385;BME280;53426;55.872;37.462;2023-10-31T13:30:04;98987.88;;;10.18;77.81
66385;BME280;53426;55.872;37.462;2023-10-31T13:32:32;99002.91;;;10.18;78.42
66385;BME280;53426;55.872;37.462;2023-10-31T13:34:58;98995.47;;;10.02;78.74
66385;BME280;53426;55.872;37.462;2023-10-31T13:37:24;98988.94;;;9.96;80.27
66385;BME280;53426;55.872;37.462;2023-10-31T13:42:51;99025.53;;;9.91;80.81
66385;BME280;53426;55.872;37.462;2023-10-31T13:45:20;99016.88;;;9.80;81.40
66385;BME280;53426;55.872;37.462;2023-10-31T13:47:46;99004.19;;;9.64;82.47
66385;BME280;53426;55.872;37.462;2023-10-31T13:50:20;99004.00;;;9.46;83.75
66385;BME280;53426;55.872;37.462;2023-10-31T13:52:49;99003.28;;;9.35;84.03
66385;BME280;53426;55.872;37.462;2023-10-31T13:55:15;98987.22;;;9.17;85.10
66385;BME280;53426;55.872;37.462;2023-10-31T13:57:41;99005.97;;;9.14;85.10
66385;BME280;53426;55.872;37.462;2023-10-31T14:00:12;99006.25;;;9.11;86.14
66385;BME280;53426;55.872;37.462;2023-10-31T14:02:40;99006.19;;;9.01;86.34
66385;BME280;53426;55.872;37.462;2023-10-31T14:05:06;99016.44;;;8.95;86.80
66385;BME280;53426;55.872;37.462;2023-10-31T14:07:32;98986.88;;;8.70;86.97
66385;BME280;53426;55.872;37.462;2023-10-31T14:10:00;99010.78;;;8.78;87.40
66385;BME280;53426;55.872;37.462;2023-10-31T14:12:29;99018.97;;;8.75;88.04
66385;BME280;53426;55.872;37.462;2023-10-31T14:14:55;99012.41;;;8.70;87.94
66385;BME280;53426;55.872;37.462;2023-10-31T14:17:21;98993.06;;;8.60;88.04
66385;BME280;53426;55.872;37.462;2023-10-31T14:19:48;98987.34;;;8.55;88.42
66385;BME280;53426;55.872;37.462;2023-10-31T14:22:14;99000.97;;;8.60;88.50
66385;BME280;53426;55.872;37.462;2023-10-31T14:24:40;98994.13;;;8.57;88.36
66385;BME280;53426;55.872;37.462;2023-10-31T14:27:11;99019.91;;;8.65;89.04
66385;BME280;53426;55.872;37.462;2023-10-31T14:29:38;99015.69;;;8.62;89.55
66385;BME280;53426;55.872;37.462;2023-10-31T14:32:08;98993.00;;;8.50;89.03
66385;BME280;53426;55.872;37.462;2023-10-31T14:34:36;99019.91;;;8.65;88.94